Time;durP1;ratioP1;P1;durP2;ratioP2;P2;SDS_P1;SDS_P2;PMS_P1;PMS_P2;Temp;Humidity;BMP_temperature;BMP_pressure;BME280_temperature;BME280_humidity;BME280_pressure;Samples;Min_cycle;Max_cycle;Signal;HPM_P1;HPM_P2
2021/11/10 00:01:41;;;;;;;7.85;3.75;;;6.60;99.90;;;;;;5120433;27;20455;-88
2021/11/10 00:04:10;;;;;;;7.47;3.30;;;6.60;99.90;;;;;;5104586;27;20857;-87
2021/11/10 00:06:38;;;;;;;8.55;3.80;;;6.60;99.90;;;;;;5103212;28;20499;-87
2021/11/10 00:09:07;;;;;;;9.65;4.18;;;6.60;99.90;;;;;;5117592;27;20396;-88
2021/11/10 00:11:36;;;;;;;7.72;3.40;;;6.70;99.90;;;;;;5121376;27;20963;-88
2021/11/10 00:14:05;;;;;;;8.95;3.55;;;6.80;99.90;;;;;;5114956;27;20405;-88
2021/11/10 00:16:35;;;;;;;7.78;3.85;;;6.70;99.90;;;;;;5125737;27;20467;-87
2021/11/10 00:19:06;;;;;;;7.53;3.75;;;6.60;99.90;;;;;;5103888;27;20445;-88
2021/11/10 00:21:35;;;;;;;8.45;3.40;;;6.70;99.90;;;;;;5112270;27;20415;-88
2021/11/10 00:24:07;;;;;;;7.28;3.30;;;6.60;99.90;;;;;;5118079;27;20420;-88
2021/11/10 00:26:36;;;;;;;8.35;3.85;;;6.70;99.90;;;;;;5102603;27;20408;-87
2021/11/10 00:29:05;;;;;;;8.30;3.78;;;6.70;99.90;;;;;;5124914;27;20403;-88
2021/11/10 00:31:36;;;;;;;8.20;3.80;;;6.60;99.90;;;;;;5121859;27;20421;-88
2021/11/10 00:34:05;;;;;;;8.65;3.45;;;6.70;99.90;;;;;;5104711;27;20425;-88
2021/11/10 00:36:34;;;;;;;7.53;3.63;;;6.70;99.90;;;;;;5118188;27;20490;-87
2021/11/10 00:39:02;;;;;;;8.32;3.65;;;6.70;99.90;;;;;;5103978;28;20408;-87
2021/11/10 00:41:30;;;;;;;8.52;3.53;;;6.70;99.90;;;;;;5118564;27;20430;-88
2021/11/10 00:44:01;;;;;;;8.25;3.90;;;6.70;99.90;;;;;;5106897;27;20405;-88
2021/11/10 00:46:30;;;;;;;10.20;3.70;;;6.60;99.90;;;;;;5119733;27;20501;-88
2021/11/10 00:49:01;;;;;;;9.35;3.63;;;6.60;99.90;;;;;;5114953;27;20416;-88
2021/11/10 00:51:31;;;;;;;7.85;3.50;;;6.60;99.90;;;;;;5119147;27;20939;-88
2021/11/10 00:54:01;;;;;;;8.65;3.50;;;6.60;99.90;;;;;;5122506;27;20423;-88
2021/11/10 00:56:30;;;;;;;9.35;3.78;;;6.50;99.90;;;;;;5117049;27;20912;-87
2021/11/10 00:59:00;;;;;;;7.78;3.92;;;6.40;99.90;;;;;;5101883;27;20541;-88
2021/11/10 01:01:28;;;;;;;8.13;3.78;;;6.40;99.90;;;;;;5108897;27;20473;-88
2021/11/10 01:03:57;;;;;;;8.60;3.40;;;6.40;99.90;;;;;;5102087;27;20407;-88
2021/11/10 01:06:28;;;;;;;7.70;3.33;;;6.40;99.90;;;;;;5107313;27;20446;-88
2021/11/10 01:08:56;;;;;;;16.30;4.00;;;6.40;99.90;;;;;;5102788;27;20519;-87
2021/11/10 01:11:25;;;;;;;10.85;4.22;;;6.40;99.90;;;;;;5105860;28;20485;-88
2021/11/10 01:13:53;;;;;;;15.93;4.93;;;6.40;99.90;;;;;;5099656;28;20487;-88
2021/11/10 01:16:22;;;;;;;15.52;5.32;;;6.40;99.90;;;;;;5115964;27;20461;-88
2021/11/10 01:18:52;;;;;;;12.10;4.07;;;6.40;99.90;;;;;;5098924;28;20471;-88
2021/11/10 01:21:28;;;;;;;13.43;3.70;;;6.40;99.90;;;;;;5103697;28;20416;-88
2021/11/10 01:26:50;;;;;;;8.07;3.45;;;6.40;99.90;;;;;;5108384;27;20454;-88
2021/11/10 01:29:19;;;;;;;9.63;3.90;;;6.30;99.90;;;;;;5102237;27;20499;-87
2021/11/10 01:31:48;;;;;;;7.38;3.58;;;6.30;99.90;;;;;;5103811;27;20447;-88
2021/11/10 01:34:18;;;;;;;10.37;4.50;;;6.20;99.90;;;;;;5103617;28;20439;-88
2021/11/10 01:36:49;;;;;;;8.45;4.35;;;6.20;99.90;;;;;;5106136;28;20420;-88
2021/11/10 01:39:17;;;;;;;8.70;4.23;;;6.10;99.90;;;;;;5117512;27;20400;-88
2021/11/10 01:41:50;;;;;;;9.27;4.57;;;6.10;99.90;;;;;;5103481;28;20424;-87
2021/11/10 01:44:23;;;;;;;10.48;4.72;;;6.20;99.90;;;;;;5106437;27;20423;-89
2021/11/10 01:46:54;;;;;;;11.43;4.82;;;6.10;99.90;;;;;;5109895;28;20523;-89
2021/11/10 01:49:29;;;;;;;9.65;4.32;;;6.10;99.90;;;;;;5109344;27;20419;-88
2021/11/10 01:52:01;;;;;;;10.18;4.30;;;6.10;99.90;;;;;;5100888;28;20927;-88
2021/11/10 01:54:33;;;;;;;11.20;4.88;;;6.10;99.90;;;;;;5124476;27;20458;-88
2021/11/10 01:57:07;;;;;;;10.80;4.18;;;6.00;99.90;;;;;;5098773;28;20415;-88
2021/11/10 01:59:40;;;;;;;12.93;4.37;;;6.10;99.90;;;;;;5097546;28;20878;-88
2021/11/10 02:02:19;;;;;;;10.90;3.85;;;6.10;99.90;;;;;;5102788;28;20406;-88
2021/11/10 02:04:51;;;;;;;8.63;4.18;;;6.00;99.90;;;;;;5108574;28;20468;-88
2021/11/10 02:07:22;;;;;;;8.43;3.78;;;6.00;99.90;;;;;;5104543;28;20412;-88
2021/11/10 02:09:52;;;;;;;8.00;3.90;;;6.00;99.90;;;;;;5120200;28;20493;-89
2021/11/10 02:12:21;;;;;;;9.50;3.50;;;6.10;99.90;;;;;;5105144;28;20405;-89
2021/11/10 02:14:53;;;;;;;8.77;3.55;;;6.00;99.90;;;;;;5110877;28;20406;-88
2021/11/10 02:17:25;;;;;;;9.17;3.57;;;6.00;99.90;;;;;;5103773;28;20420;-88
2021/11/10 02:19:59;;;;;;;8.38;3.63;;;5.90;99.90;;;;;;5121482;28;20548;-88
2021/11/10 02:22:38;;;;;;;7.88;3.70;;;5.90;99.90;;;;;;5112603;28;20448;-88
2021/11/10 02:25:10;;;;;;;9.13;3.50;;;5.90;99.90;;;;;;5124403;27;20403;-88
2021/11/10 02:27:41;;;;;;;8.03;3.57;;;5.90;99.90;;;;;;5117478;27;20888;-88
2021/11/10 02:30:14;;;;;;;9.93;3.60;;;5.90;99.90;;;;;;5112527;27;20399;-88
2021/11/10 02:32:47;;;;;;;9.85;3.60;;;5.90;99.90;;;;;;5106897;27;21524;-88
2021/11/10 02:35:21;;;;;;;8.18;3.90;;;5.90;99.90;;;;;;5107263;27;20423;-88
2021/11/10 02:37:54;;;;;;;9.40;3.42;;;5.90;99.90;;;;;;5103920;27;20420;-88
2021/11/10 02:40:23;;;;;;;6.45;3.00;;;5.90;99.90;;;;;;5123341;27;20535;-89
2021/11/10 02:42:53;;;;;;;7.30;3.50;;;5.80;99.90;;;;;;5108409;27;20407;-89
2021/11/10 02:45:23;;;;;;;6.53;3.20;;;5.80;99.90;;;;;;5112259;27;20483;-89
2021/11/10 02:47:53;;;;;;;6.53;3.30;;;5.80;99.90;;;;;;5123914;27;20415;-88
2021/11/10 02:50:22;;;;;;;6.97;3.10;;;5.70;99.90;;;;;;5113758;27;20495;-88
2021/11/10 02:52:52;;;;;;;6.60;3.25;;;5.70;99.90;;;;;;5104470;27;20505;-88
2021/11/10 02:55:21;;;;;;;7.03;3.10;;;5.70;99.90;;;;;;5102654;27;20416;-89
2021/11/10 02:57:51;;;;;;;8.27;3.10;;;5.70;99.90;;;;;;5107569;27;20475;-89
2021/11/10 03:00:20;;;;;;;7.63;3.30;;;5.70;99.90;;;;;;5120764;27;20412;-89
2021/11/10 03:02:51;;;;;;;7.53;3.35;;;5.70;99.90;;;;;;5113246;27;20912;-89
2021/11/10 03:05:21;;;;;;;6.80;3.25;;;5.70;99.90;;;;;;5124108;27;20406;-88
2021/11/10 03:07:52;;;;;;;7.97;3.10;;;5.70;99.90;;;;;;5116306;27;20419;-89
2021/11/10 03:10:22;;;;;;;6.70;3.22;;;5.80;99.90;;;;;;5109671;27;20407;-88
2021/11/10 03:12:52;;;;;;;6.28;3.00;;;5.70;99.90;;;;;;5116172;27;20437;-89
2021/11/10 03:15:26;;;;;;;7.70;3.13;;;5.60;99.90;;;;;;5113678;27;20418;-88
2021/11/10 03:17:56;;;;;;;6.80;3.50;;;5.70;99.90;;;;;;5121679;27;20412;-89
2021/11/10 03:20:46;;;;;;;6.63;3.10;;;5.60;99.90;;;;;;5118198;27;20417;-88
2021/11/10 03:23:15;;;;;;;6.83;3.43;;;5.70;99.90;;;;;;5103164;27;20437;-88
2021/11/10 03:25:47;;;;;;;6.60;3.30;;;5.80;99.90;;;;;;5109939;27;20416;-87
2021/11/10 03:28:19;;;;;;;7.82;3.08;;;5.80;99.90;;;;;;5112668;27;20418;-86
2021/11/10 03:30:49;;;;;;;6.07;3.10;;;5.80;99.90;;;;;;5110096;27;20763;-86
2021/11/10 03:33:19;;;;;;;7.87;3.40;;;5.80;99.90;;;;;;5109331;27;20407;-87
2021/11/10 03:35:48;;;;;;;8.23;3.70;;;5.70;99.90;;;;;;5128339;27;21185;-86
2021/11/10 03:38:22;;;;;;;7.22;3.15;;;5.70;99.90;;;;;;5111412;27;20496;-89
2021/11/10 03:40:54;;;;;;;9.55;3.75;;;5.70;99.90;;;;;;5114733;27;20415;-89
2021/11/10 03:43:28;;;;;;;6.87;3.30;;;5.80;99.90;;;;;;5112379;27;20417;-89
2021/11/10 03:46:01;;;;;;;6.55;3.17;;;5.70;99.90;;;;;;5107871;27;20413;-89
2021/11/10 03:48:35;;;;;;;6.57;3.40;;;5.80;99.90;;;;;;5126878;27;20399;-89
2021/11/10 03:51:07;;;;;;;5.63;3.75;;;5.80;99.90;;;;;;5121017;27;20416;-90
2021/11/10 03:53:39;;;;;;;6.63;3.23;;;5.70;99.90;;;;;;5116080;27;20469;-89
2021/11/10 03:56:12;;;;;;;7.97;3.35;;;5.70;99.90;;;;;;5110677;27;20485;-89
2021/11/10 03:58:41;;;;;;;7.57;3.15;;;5.70;99.90;;;;;;5103041;27;20422;-87
2021/11/10 04:01:13;;;;;;;7.95;3.45;;;5.60;99.90;;;;;;5108007;27;20520;-87
2021/11/10 04:03:43;;;;;;;6.50;3.05;;;5.60;99.90;;;;;;5106108;28;20426;-85
2021/11/10 04:06:12;;;;;;;7.13;3.28;;;5.60;99.90;;;;;;5101766;27;21034;-89
2021/11/10 04:08:45;;;;;;;6.57;3.17;;;5.60;99.90;;;;;;5105663;28;20890;-88
2021/11/10 04:11:38;;;;;;;6.40;3.22;;;5.60;99.90;;;;;;5113451;27;20528;-86
2021/11/10 04:14:11;;;;;;;6.53;3.03;;;5.60;99.90;;;;;;5123002;27;20967;-87
2021/11/10 04:16:42;;;;;;;6.50;3.40;;;5.60;99.90;;;;;;5107162;27;20399;-87
2021/11/10 04:19:12;;;;;;;6.65;3.10;;;5.60;99.90;;;;;;5124289;27;20423;-87
2021/11/10 04:21:41;;;;;;;6.50;3.28;;;5.60;99.90;;;;;;5105479;27;20410;-86
2021/11/10 04:24:11;;;;;;;7.32;3.20;;;5.60;99.90;;;;;;5116855;27;20467;-87
2021/11/10 04:26:41;;;;;;;6.22;2.67;;;5.50;99.90;;;;;;5097646;27;20402;-88
2021/11/10 04:29:16;;;;;;;6.68;3.20;;;5.50;99.90;;;;;;5104219;27;20417;-87
2021/11/10 04:31:45;;;;;;;6.55;2.80;;;5.50;99.90;;;;;;5116529;27;20728;-87
2021/11/10 04:34:15;;;;;;;5.57;2.97;;;5.50;99.90;;;;;;5118378;27;20680;-89
2021/11/10 04:36:49;;;;;;;5.70;3.00;;;5.50;99.90;;;;;;5103570;27;20489;-87
2021/11/10 04:39:20;;;;;;;6.93;3.80;;;5.50;99.90;;;;;;5101704;28;20943;-87
2021/11/10 04:41:48;;;;;;;7.65;3.47;;;5.40;99.90;;;;;;5104797;27;20436;-90
2021/11/10 04:44:50;;;;;;;6.57;3.45;;;5.30;99.90;;;;;;5119799;27;20435;-88
2021/11/10 04:47:19;;;;;;;10.90;3.95;;;5.30;99.90;;;;;;5108024;28;20901;-90
2021/11/10 04:49:47;;;;;;;9.77;3.60;;;5.30;99.90;;;;;;5116388;27;20410;-87
2021/11/10 04:52:19;;;;;;;8.13;3.80;;;5.30;99.90;;;;;;5118178;27;20407;-89
2021/11/10 04:54:50;;;;;;;7.03;3.67;;;5.40;99.90;;;;;;5122736;27;20892;-89
2021/11/10 04:57:19;;;;;;;8.40;4.00;;;5.40;99.90;;;;;;5114724;27;20417;-89
2021/11/10 04:59:49;;;;;;;7.85;3.97;;;5.30;99.90;;;;;;5105893;27;20459;-89
2021/11/10 05:02:26;;;;;;;9.53;4.00;;;5.40;99.90;;;;;;5108671;27;20442;-89
2021/11/10 05:04:57;;;;;;;8.18;3.67;;;5.40;99.90;;;;;;5107137;27;20417;-90
2021/11/10 05:07:29;;;;;;;8.35;3.95;;;5.50;99.90;;;;;;5106043;27;20407;-88
2021/11/10 05:10:00;;;;;;;7.97;4.20;;;5.50;99.90;;;;;;5112032;27;20402;-89
2021/11/10 05:12:29;;;;;;;8.82;3.70;;;5.50;99.90;;;;;;5117467;27;20418;-88
2021/11/10 05:14:58;;;;;;;9.68;4.45;;;5.60;99.90;;;;;;5123498;27;20431;-89
2021/11/10 05:17:28;;;;;;;7.40;3.60;;;5.60;99.90;;;;;;5127621;27;20409;-89
2021/11/10 05:19:57;;;;;;;10.20;3.85;;;5.60;99.90;;;;;;5126520;27;20415;-88
2021/11/10 05:22:40;;;;;;;8.80;3.88;;;5.60;99.90;;;;;;5127596;27;20466;-88
2021/11/10 05:25:12;;;;;;;7.40;3.40;;;5.60;99.90;;;;;;5124661;27;20421;-89
2021/11/10 05:27:41;;;;;;;8.13;4.00;;;5.60;99.90;;;;;;5141488;27;20478;-89
2021/11/10 05:30:12;;;;;;;7.55;4.10;;;5.60;99.90;;;;;;5123209;27;20417;-90
2021/11/10 05:32:42;;;;;;;7.27;4.10;;;5.60;99.90;;;;;;5111078;27;20915;-88
2021/11/10 05:35:13;;;;;;;7.70;3.55;;;5.60;99.90;;;;;;5124040;27;20468;-90
2021/11/10 05:37:42;;;;;;;8.25;3.65;;;5.60;99.90;;;;;;5102649;28;20748;-90
2021/11/10 05:40:12;;;;;;;6.80;3.80;;;5.60;99.90;;;;;;5124618;27;20414;-89
2021/11/10 05:42:40;;;;;;;8.13;3.80;;;5.60;99.90;;;;;;5106202;28;20444;-91
2021/11/10 05:45:10;;;;;;;7.35;3.65;;;5.60;99.90;;;;;;5115367;28;20508;-95
2021/11/10 05:47:40;;;;;;;7.63;3.80;;;5.70;99.90;;;;;;5099800;28;20428;-92
2021/11/10 05:50:10;;;;;;;8.43;4.32;;;5.70;99.90;;;;;;5105350;28;20415;-88
2021/11/10 05:52:41;;;;;;;8.45;3.85;;;5.70;99.90;;;;;;5110923;27;20932;-84
2021/11/10 05:55:14;;;;;;;8.65;3.65;;;5.70;99.90;;;;;;5109562;28;20904;-85
2021/11/10 05:57:43;;;;;;;7.35;3.78;;;5.60;99.90;;;;;;5100208;27;20414;-92
2021/11/10 06:00:13;;;;;;;8.57;3.80;;;5.70;99.90;;;;;;5107691;27;20439;-92
2021/11/10 06:03:07;;;;;;;9.82;4.22;;;5.70;99.90;;;;;;5108022;27;20448;-89
2021/11/10 06:05:37;;;;;;;10.45;4.25;;;5.70;99.90;;;;;;5114498;27;20408;-93
2021/11/10 06:08:31;;;;;;;9.43;4.25;;;5.70;99.90;;;;;;5106448;27;20430;-86
2021/11/10 06:11:12;;;;;;;9.40;4.18;;;5.80;99.90;;;;;;5107060;27;20442;-84
2021/11/10 06:13:41;;;;;;;8.43;4.20;;;5.90;99.90;;;;;;5122532;27;20398;-84
2021/11/10 06:16:10;;;;;;;8.00;4.05;;;5.90;99.90;;;;;;5126242;27;20431;-85
2021/11/10 06:18:39;;;;;;;6.78;3.75;;;5.80;99.90;;;;;;5127737;27;20480;-84
2021/11/10 06:21:10;;;;;;;8.32;3.92;;;5.80;99.90;;;;;;5111262;28;20475;-85
2021/11/10 06:23:39;;;;;;;9.27;3.78;;;5.70;99.90;;;;;;5122190;28;20813;-84
2021/11/10 06:26:11;;;;;;;7.85;3.35;;;5.70;99.90;;;;;;5131019;27;20930;-87
2021/11/10 06:28:43;;;;;;;7.97;3.83;;;5.70;99.90;;;;;;5128729;28;20944;-82
2021/11/10 06:31:37;;;;;;;8.35;3.65;;;5.70;99.90;;;;;;5125052;27;20908;-85
2021/11/10 06:34:07;;;;;;;7.70;3.80;;;5.70;99.90;;;;;;5124572;28;20960;-85
2021/11/10 06:36:37;;;;;;;8.02;3.90;;;5.70;99.90;;;;;;5125340;28;20407;-82
2021/11/10 06:39:06;;;;;;;8.15;3.80;;;5.70;99.90;;;;;;5130776;27;20886;-81
2021/11/10 06:41:36;;;;;;;8.93;4.10;;;5.70;99.90;;;;;;5121654;28;20460;-80
2021/11/10 06:44:05;;;;;;;8.75;4.32;;;5.80;99.90;;;;;;5121783;27;20519;-81
2021/11/10 06:46:35;;;;;;;9.93;4.10;;;5.70;99.90;;;;;;5108703;28;20631;-81
2021/11/10 06:49:03;;;;;;;9.57;3.85;;;5.70;99.90;;;;;;5113432;27;20851;-81
2021/11/10 06:51:33;;;;;;;9.07;3.85;;;5.70;99.90;;;;;;5110655;28;20406;-81
2021/11/10 06:54:02;;;;;;;11.73;4.60;;;5.70;99.90;;;;;;5106413;27;20530;-81
2021/11/10 06:56:30;;;;;;;10.38;4.40;;;5.70;99.90;;;;;;5123304;28;20506;-81
2021/11/10 06:59:00;;;;;;;12.23;4.22;;;5.80;99.90;;;;;;5108720;27;20435;-80
2021/11/10 07:01:28;;;;;;;9.55;4.75;;;5.80;99.90;;;;;;5127802;27;20508;-80
2021/11/10 07:03:58;;;;;;;12.80;4.47;;;5.80;99.90;;;;;;5130265;27;20400;-80
2021/11/10 07:06:27;;;;;;;9.60;3.90;;;5.80;99.90;;;;;;5108652;27;20488;-81
2021/11/10 07:08:55;;;;;;;10.23;4.30;;;5.80;99.90;;;;;;5109950;28;20410;-80
2021/11/10 07:11:24;;;;;;;10.23;4.38;;;5.90;99.90;;;;;;5132447;27;20442;-80
2021/11/10 07:13:53;;;;;;;9.38;4.22;;;5.90;99.90;;;;;;5131518;27;20895;-80
2021/11/10 07:16:23;;;;;;;8.55;4.18;;;5.80;99.90;;;;;;5119888;27;20414;-81
2021/11/10 07:18:52;;;;;;;9.15;4.15;;;5.90;99.90;;;;;;5108859;27;20812;-87
2021/11/10 07:21:21;;;;;;;8.70;3.80;;;6.00;99.90;;;;;;5107693;27;20414;-87
2021/11/10 07:23:51;;;;;;;7.20;4.10;;;6.00;99.90;;;;;;5116520;27;20537;-87
2021/11/10 07:26:21;;;;;;;7.32;4.13;;;6.00;99.90;;;;;;5113051;27;20402;-87
2021/11/10 07:28:53;;;;;;;9.98;4.40;;;6.10;99.90;;;;;;5132982;27;20472;-86
2021/11/10 07:31:24;;;;;;;8.98;4.10;;;6.20;99.90;;;;;;5112392;27;20401;-87
2021/11/10 07:33:53;;;;;;;9.45;3.90;;;6.20;99.90;;;;;;5111942;27;20395;-86
2021/11/10 07:36:23;;;;;;;7.85;4.20;;;6.20;99.90;;;;;;5107652;27;20944;-86
2021/11/10 07:38:55;;;;;;;9.63;4.32;;;6.30;99.90;;;;;;5109879;27;20410;-87
2021/11/10 07:41:27;;;;;;;9.10;4.55;;;6.30;99.90;;;;;;5109847;27;20505;-87
2021/11/10 07:43:55;;;;;;;10.50;4.57;;;6.30;99.90;;;;;;5112584;27;20483;-87
2021/11/10 07:46:29;;;;;;;9.85;4.18;;;6.40;99.90;;;;;;5115150;27;20437;-87
2021/11/10 07:48:58;;;;;;;8.65;4.20;;;6.30;99.90;;;;;;5128782;27;20403;-87
2021/11/10 07:51:27;;;;;;;9.02;4.10;;;6.20;99.90;;;;;;5112158;27;20745;-86
2021/11/10 07:53:57;;;;;;;9.18;4.50;;;6.30;99.90;;;;;;5112140;27;20413;-87
2021/11/10 07:56:26;;;;;;;9.50;3.90;;;6.40;99.90;;;;;;5112048;27;20572;-87
2021/11/10 07:58:54;;;;;;;8.65;4.20;;;6.40;99.90;;;;;;5109922;27;20408;-87
2021/11/10 08:01:30;;;;;;;8.87;4.70;;;6.50;99.90;;;;;;5109344;27;20437;-86
2021/11/10 08:04:02;;;;;;;8.40;4.43;;;6.50;99.90;;;;;;5111784;27;20460;-87
2021/11/10 08:06:31;;;;;;;8.95;4.20;;;6.50;99.90;;;;;;5121802;27;20421;-87
2021/11/10 08:09:00;;;;;;;8.50;4.30;;;6.60;99.90;;;;;;5113637;27;20831;-84
2021/11/10 08:11:30;;;;;;;11.07;4.20;;;6.70;99.90;;;;;;5134061;27;20404;-87
2021/11/10 08:13:58;;;;;;;11.95;5.00;;;6.70;99.90;;;;;;5125370;27;20441;-84
2021/11/10 08:16:27;;;;;;;9.30;4.27;;;6.70;99.90;;;;;;5122758;27;20404;-85
2021/11/10 08:18:57;;;;;;;9.70;4.72;;;6.90;99.90;;;;;;5111208;27;20492;-85
2021/11/10 08:21:29;;;;;;;12.02;5.07;;;6.80;99.90;;;;;;5114370;27;20463;-84
2021/11/10 08:26:50;;;;;;;12.15;5.55;;;7.00;99.90;;;;;;5125129;27;20485;-86
2021/11/10 08:29:20;;;;;;;12.93;5.75;;;6.90;99.90;;;;;;5106561;27;20412;-85
2021/11/10 08:31:49;;;;;;;10.13;5.17;;;7.00;99.90;;;;;;5110001;27;20414;-84
2021/11/10 08:34:19;;;;;;;11.17;5.30;;;7.10;99.90;;;;;;5123951;27;20482;-85
2021/11/10 08:36:49;;;;;;;13.38;5.20;;;7.10;99.90;;;;;;5113396;27;20411;-84
2021/11/10 08:39:18;;;;;;;12.88;5.47;;;7.10;99.90;;;;;;5123041;27;20407;-85
2021/11/10 08:41:48;;;;;;;12.73;5.57;;;7.20;99.90;;;;;;5113635;27;20470;-85
2021/11/10 08:44:17;;;;;;;10.13;5.28;;;7.20;99.90;;;;;;5102029;27;20435;-84
2021/11/10 08:46:46;;;;;;;10.30;4.95;;;7.30;99.90;;;;;;5106644;27;20402;-85
2021/11/10 08:49:16;;;;;;;9.95;4.65;;;7.40;99.90;;;;;;5113211;27;20925;-85
2021/11/10 08:51:47;;;;;;;12.20;5.18;;;7.40;99.90;;;;;;5105166;27;20862;-86
2021/11/10 08:54:19;;;;;;;10.10;4.97;;;7.50;99.90;;;;;;5100233;27;20491;-79
2021/11/10 08:59:41;;;;;;;11.17;4.77;;;7.60;99.90;;;;;;5100333;27;20411;-86
2021/11/10 09:02:10;;;;;;;9.55;5.15;;;7.70;99.90;;;;;;5106138;28;20439;-86
2021/11/10 09:04:39;;;;;;;9.40;4.88;;;7.70;99.90;;;;;;5108842;27;20901;-86
2021/11/10 09:07:08;;;;;;;10.40;5.00;;;7.80;99.90;;;;;;5111622;27;20413;-86
2021/11/10 09:09:38;;;;;;;10.40;4.63;;;7.90;99.90;;;;;;5105514;27;20523;-86
2021/11/10 09:12:09;;;;;;;12.60;4.80;;;8.00;99.90;;;;;;5094451;28;20408;-86
2021/11/10 10:20:41;;;;;;;11.68;6.03;;;9.40;99.90;;;;;;5116259;28;20431;-85
2021/11/10 10:23:12;;;;;;;14.35;6.72;;;9.40;99.90;;;;;;5103228;28;20448;-85
2021/11/10 10:25:44;;;;;;;13.20;6.45;;;9.40;99.90;;;;;;5100852;28;20419;-79
2021/11/10 10:28:16;;;;;;;11.27;6.10;;;9.40;99.90;;;;;;5114765;28;20450;-93
2021/11/10 10:30:48;;;;;;;13.97;6.60;;;9.30;99.90;;;;;;5122817;28;20481;-86
2021/11/10 10:33:21;;;;;;;11.75;6.47;;;9.40;99.90;;;;;;5122542;28;20411;-84
2021/11/10 10:35:53;;;;;;;11.98;6.50;;;9.40;99.90;;;;;;5108230;28;20407;-85
2021/11/10 10:38:24;;;;;;;11.00;6.30;;;9.50;99.90;;;;;;5098153;28;20406;-84
2021/11/10 10:40:55;;;;;;;12.40;6.15;;;9.50;99.90;;;;;;5106581;28;20481;-83
2021/11/10 10:43:25;;;;;;;11.35;6.10;;;9.70;99.90;;;;;;5103303;28;20413;-82
2021/11/10 10:45:58;;;;;;;12.33;6.37;;;9.70;99.90;;;;;;5103030;27;20472;-84
2021/11/10 10:48:31;;;;;;;11.98;6.25;;;9.90;99.90;;;;;;5124923;27;20406;-85
2021/11/10 10:51:03;;;;;;;14.95;6.70;;;10.00;99.90;;;;;;5117212;27;20412;-86
2021/11/10 10:53:41;;;;;;;14.40;7.10;;;10.10;99.90;;;;;;5124514;27;20422;-82
2021/11/10 10:56:21;;;;;;;13.63;6.33;;;10.10;99.90;;;;;;5124428;27;20398;-82
2021/11/10 10:58:51;;;;;;;13.00;6.72;;;10.30;99.90;;;;;;5128525;27;20412;-84
2021/11/10 11:01:26;;;;;;;11.45;6.65;;;10.40;99.90;;;;;;5140165;27;20415;-84
2021/11/10 11:04:03;;;;;;;11.68;6.25;;;10.40;99.90;;;;;;5106898;28;20400;-85
2021/11/10 11:06:39;;;;;;;17.63;7.68;;;10.50;99.90;;;;;;5114924;27;20457;-82
2021/11/10 11:09:19;;;;;;;15.43;7.57;;;10.50;99.90;;;;;;5090564;28;20411;-84
2021/11/10 11:11:59;;;;;;;16.35;6.85;;;10.40;99.90;;;;;;5108483;27;20443;-82
2021/11/10 11:14:42;;;;;;;12.90;6.63;;;10.40;99.90;;;;;;5093565;27;20810;-89
2021/11/10 11:17:30;;;;;;;11.35;6.00;;;10.40;99.90;;;;;;5109818;28;20482;-89
2021/11/10 11:20:04;;;;;;;11.55;6.45;;;10.30;99.90;;;;;;5095014;28;20511;-83
2021/11/10 11:22:35;;;;;;;10.80;6.23;;;10.40;99.90;;;;;;5093098;28;20416;-85
2021/11/10 11:25:13;;;;;;;10.93;6.10;;;10.50;99.90;;;;;;5091781;28;20465;-86
2021/11/10 11:27:53;;;;;;;12.73;6.27;;;10.40;99.90;;;;;;5094746;27;20465;-94
2021/11/10 11:30:24;;;;;;;12.93;6.65;;;10.30;99.90;;;;;;5104398;28;20485;-85
2021/11/10 11:32:55;;;;;;;11.18;6.18;;;10.30;99.90;;;;;;5087539;28;20411;-86
2021/11/10 11:35:30;;;;;;;14.07;6.95;;;10.40;99.90;;;;;;5098505;27;20410;-85
2021/11/10 11:38:01;;;;;;;14.27;6.93;;;10.50;99.90;;;;;;5095854;28;20469;-83
2021/11/10 11:40:33;;;;;;;11.88;6.32;;;10.50;99.90;;;;;;5090674;28;20519;-90
2021/11/10 11:43:29;;;;;;;12.40;6.63;;;10.60;99.90;;;;;;5106457;27;20508;-89
2021/11/10 11:46:03;;;;;;;12.85;6.95;;;10.70;99.90;;;;;;5104481;28;20434;-86
2021/11/10 11:48:38;;;;;;;10.75;6.65;;;10.70;99.90;;;;;;5087038;28;20800;-86
2021/11/10 11:51:12;;;;;;;11.70;6.65;;;10.80;99.90;;;;;;5090889;28;20454;-86
2021/11/10 11:53:42;;;;;;;11.82;6.30;;;10.90;99.90;;;;;;5090828;27;20770;-88
2021/11/10 11:56:15;;;;;;;11.70;6.22;;;10.90;99.90;;;;;;5094701;28;20440;-87
2021/11/10 11:58:48;;;;;;;12.90;6.63;;;11.00;99.90;;;;;;5085374;28;20470;-86
2021/11/10 12:01:21;;;;;;;13.15;6.80;;;11.10;99.90;;;;;;5103926;27;20417;-85
2021/11/10 12:03:53;;;;;;;12.95;6.75;;;11.10;99.90;;;;;;5090549;27;20425;-85
2021/11/10 12:06:24;;;;;;;12.33;6.13;;;11.10;99.90;;;;;;5112174;27;20424;-85
2021/11/10 12:08:55;;;;;;;11.30;6.38;;;11.10;99.90;;;;;;5102641;27;20406;-85
2021/11/10 12:11:32;;;;;;;13.32;7.15;;;11.20;99.90;;;;;;5124724;27;20399;-85
2021/11/10 12:14:13;;;;;;;12.65;7.00;;;11.10;99.90;;;;;;5106811;27;20945;-83
2021/11/10 12:17:04;;;;;;;11.73;6.35;;;11.00;99.90;;;;;;5122489;27;20433;-83
2021/11/10 12:19:35;;;;;;;12.00;6.57;;;10.90;99.90;;;;;;5107606;27;20423;-83
2021/11/10 12:22:09;;;;;;;12.73;7.15;;;10.90;99.90;;;;;;5131480;27;20590;-83
2021/11/10 12:24:47;;;;;;;11.27;6.68;;;11.00;99.90;;;;;;5110542;27;20489;-83
2021/11/10 12:27:38;;;;;;;11.98;6.57;;;11.00;99.90;;;;;;5108740;27;20437;-84
2021/11/10 12:30:16;;;;;;;13.97;7.33;;;10.90;99.90;;;;;;5125033;27;20402;-82
2021/11/10 12:32:58;;;;;;;13.82;7.10;;;11.10;99.90;;;;;;5112427;27;20898;-83
2021/11/10 12:35:44;;;;;;;13.40;7.28;;;11.30;99.90;;;;;;5107286;27;20720;-83
2021/11/10 12:38:20;;;;;;;12.70;6.93;;;11.20;99.90;;;;;;5115773;27;20415;-83
2021/11/10 12:40:54;;;;;;;10.90;6.70;;;11.30;99.90;;;;;;5105808;27;20404;-84
2021/11/10 12:43:24;;;;;;;12.10;6.85;;;11.30;99.90;;;;;;5107251;27;20588;-83
2021/11/10 12:45:59;;;;;;;13.48;6.40;;;11.30;99.90;;;;;;5127963;27;20409;-84
2021/11/10 12:48:37;;;;;;;11.68;6.40;;;11.30;99.90;;;;;;5128290;27;20390;-84
2021/11/10 12:51:19;;;;;;;13.18;7.05;;;11.50;99.90;;;;;;5112528;27;20398;-83
2021/11/10 12:53:51;;;;;;;10.73;6.38;;;11.60;99.90;;;;;;5113814;27;20414;-83
2021/11/10 12:56:45;;;;;;;11.27;6.70;;;11.50;99.90;;;;;;5125956;27;20555;-83
2021/11/10 12:59:20;;;;;;;11.43;6.65;;;11.50;99.90;;;;;;5113578;27;20437;-84
2021/11/10 13:01:50;;;;;;;12.57;6.95;;;11.50;99.90;;;;;;5121801;27;20471;-84
2021/11/10 13:04:24;;;;;;;13.38;7.47;;;11.30;99.90;;;;;;5103929;28;20408;-83
2021/11/10 13:06:55;;;;;;;11.65;6.47;;;11.40;99.90;;;;;;5124580;27;20407;-83
2021/11/10 13:09:35;;;;;;;11.30;6.53;;;11.40;99.90;;;;;;5119873;27;20399;-83
2021/11/10 13:12:06;;;;;;;13.02;6.60;;;11.40;99.90;;;;;;5113159;27;20494;-83
2021/11/10 13:14:41;;;;;;;12.70;7.00;;;11.40;99.90;;;;;;5102603;27;20412;-83
2021/11/10 13:17:12;;;;;;;13.23;6.57;;;11.50;99.90;;;;;;5106645;27;20532;-83
2021/11/10 13:19:44;;;;;;;14.30;7.40;;;11.60;99.90;;;;;;5114164;27;20987;-82
2021/11/10 13:22:17;;;;;;;12.88;7.15;;;11.60;99.90;;;;;;5107566;27;20511;-83
2021/11/10 13:24:50;;;;;;;12.38;6.95;;;11.60;99.90;;;;;;5098773;27;20395;-83
2021/11/10 13:30:42;;;;;;;13.43;7.60;;;11.50;99.90;;;;;;5097464;27;20418;-83
2021/11/10 13:33:23;;;;;;;12.60;7.38;;;11.40;99.90;;;;;;5099172;28;20529;-83
2021/11/10 13:36:00;;;;;;;13.10;7.55;;;11.50;99.90;;;;;;5108224;27;20403;-83
2021/11/10 13:38:47;;;;;;;12.20;7.63;;;11.50;99.90;;;;;;5106470;27;20453;-82
2021/11/10 13:41:35;;;;;;;14.43;8.30;;;11.60;99.90;;;;;;5138546;27;20399;-82
2021/11/10 13:44:08;;;;;;;14.38;7.43;;;11.60;99.90;;;;;;5122455;27;20512;-83
2021/11/10 13:46:40;;;;;;;12.48;7.18;;;11.60;99.90;;;;;;5119890;27;20417;-83
2021/11/10 13:49:13;;;;;;;12.38;7.30;;;11.50;99.90;;;;;;5126042;27;20404;-83
2021/11/10 13:51:51;;;;;;;15.33;7.33;;;11.60;99.90;;;;;;5102921;27;20403;-83
2021/11/10 13:54:20;;;;;;;12.75;6.93;;;11.50;99.90;;;;;;5120465;27;20498;-83
2021/11/10 13:56:56;;;;;;;12.68;6.85;;;11.50;99.90;;;;;;5119985;27;20406;-82
2021/11/10 13:59:27;;;;;;;14.07;7.43;;;11.50;99.90;;;;;;5102087;28;20434;-82
2021/11/10 14:02:01;;;;;;;12.50;7.05;;;11.40;99.90;;;;;;5122111;27;20528;-82
2021/11/10 14:04:31;;;;;;;14.13;7.70;;;11.50;99.90;;;;;;5132612;27;20420;-83
2021/11/10 14:07:13;;;;;;;13.93;7.53;;;11.50;99.90;;;;;;5098018;28;20511;-82
2021/11/10 14:09:52;;;;;;;12.95;7.53;;;11.60;99.90;;;;;;5116971;27;20478;-83
2021/11/10 14:12:39;;;;;;;13.60;7.88;;;11.50;99.90;;;;;;5097732;28;20416;-83
2021/11/10 14:15:11;;;;;;;15.38;7.88;;;11.50;99.90;;;;;;5114271;28;20447;-82
2021/11/10 14:18:06;;;;;;;14.60;7.65;;;11.50;99.90;;;;;;5100179;28;20403;-83
2021/11/10 14:20:37;;;;;;;13.80;7.68;;;11.40;99.90;;;;;;5103567;27;20541;-82
2021/11/10 14:23:07;;;;;;;14.45;7.53;;;11.50;99.90;;;;;;5108992;27;20501;-83
2021/11/10 14:25:41;;;;;;;15.13;7.57;;;11.60;99.90;;;;;;5121453;27;20410;-82
2021/11/10 14:28:13;;;;;;;15.98;8.60;;;11.60;99.90;;;;;;5108199;27;20469;-83
2021/11/10 14:30:47;;;;;;;16.13;8.55;;;11.50;99.90;;;;;;5106905;28;20829;-84
2021/11/10 14:33:18;;;;;;;17.52;8.98;;;11.50;99.90;;;;;;5103655;27;20458;-82
2021/11/10 14:35:51;;;;;;;19.17;9.18;;;11.40;99.90;;;;;;5125533;27;20434;-82